Time;durP1;ratioP1;P1;durP2;ratioP2;P2;SDS_P1;SDS_P2;PMS_P1;PMS_P2;Temp;Humidity;BMP_temperature;BMP_pressure;BME280_temperature;BME280_humidity;BME280_pressure;Samples;Min_cycle;Max_cycle;Signal;HPM_P1;HPM_P2
2021/10/27 00:01:11;;;;;;;16.73;7.03;;;;;;;13.67;95.17;102173.69;5053947;28;20449;-63
2021/10/27 00:03:36;;;;;;;16.08;5.90;;;;;;;13.69;94.99;102169.19;5052132;28;20465;-60
2021/10/27 00:06:02;;;;;;;21.58;5.80;;;;;;;13.72;94.82;102171.72;5051887;28;20021;-61
2021/10/27 00:08:27;;;;;;;18.38;6.80;;;;;;;13.73;94.88;102178.81;5034332;28;20108;-62
2021/10/27 00:10:52;;;;;;;21.60;6.72;;;;;;;13.73;94.74;102174.38;5051360;28;20021;-63
2021/10/27 00:13:18;;;;;;;19.50;7.10;;;;;;;13.76;94.60;102160.94;5051494;28;20111;-61
2021/10/27 00:15:44;;;;;;;17.60;6.70;;;;;;;13.75;94.76;102168.97;5051900;28;20086;-63
2021/10/27 00:18:09;;;;;;;18.55;6.55;;;;;;;13.78;94.71;102174.19;5051934;28;20029;-63
2021/10/27 00:20:35;;;;;;;18.50;6.38;;;;;;;13.79;94.43;102178.59;5051657;28;20112;-61
2021/10/27 00:23:00;;;;;;;18.27;6.30;;;;;;;13.76;94.41;102174.25;5051589;28;20057;-60
2021/10/27 00:25:26;;;;;;;23.60;7.20;;;;;;;13.76;94.68;102184.88;5072754;28;20033;-61
2021/10/27 00:27:51;;;;;;;17.08;7.07;;;;;;;13.76;94.78;102178.72;5075925;28;20107;-59
2021/10/27 00:30:17;;;;;;;19.67;6.97;;;;;;;13.77;94.70;102175.97;5076024;28;20501;-63
2021/10/27 00:32:42;;;;;;;18.42;8.02;;;;;;;13.76;94.62;102168.91;5071853;28;20024;-60
2021/10/27 00:35:08;;;;;;;18.70;7.65;;;;;;;13.79;94.69;102180.38;5075607;28;20593;-63
2021/10/27 00:37:34;;;;;;;26.25;8.80;;;;;;;13.79;94.89;102167.06;5075608;28;20384;-61
2021/10/27 00:40:00;;;;;;;24.08;9.23;;;;;;;13.77;94.94;102168.00;5075610;28;20086;-60
2021/10/27 00:42:25;;;;;;;17.33;9.52;;;;;;;13.75;95.25;102168.97;5073608;28;20032;-63
2021/10/27 00:44:50;;;;;;;21.23;8.98;;;;;;;13.73;95.33;102173.47;5073136;28;20369;-62
2021/10/27 00:47:16;;;;;;;20.33;9.70;;;;;;;13.72;95.77;102174.41;5075733;28;20028;-61
2021/10/27 00:49:44;;;;;;;18.55;9.88;;;;;;;13.69;96.15;102188.69;5075111;28;20020;-63
2021/10/27 00:52:13;;;;;;;19.02;9.85;;;;;;;13.66;96.28;102172.84;5075112;28;20028;-62
2021/10/27 00:54:40;;;;;;;20.40;10.10;;;;;;;13.59;96.82;102176.63;5071921;28;20426;-62
2021/10/27 00:57:06;;;;;;;18.27;9.90;;;;;;;13.55;97.04;102175.88;5075282;28;20056;-62
2021/10/27 00:59:35;;;;;;;20.50;10.13;;;;;;;13.56;97.27;102179.44;5075001;28;20028;-61
2021/10/27 01:02:00;;;;;;;16.60;9.75;;;;;;;13.56;97.29;102174.09;5074964;28;20029;-64
2021/10/27 01:04:26;;;;;;;19.13;9.70;;;;;;;13.52;97.32;102168.00;5065566;28;20425;-63
2021/10/27 01:06:52;;;;;;;19.27;9.02;;;;;;;13.52;97.41;102172.47;5075475;28;20032;-64
2021/10/27 01:09:18;;;;;;;15.15;8.27;;;;;;;13.50;97.53;102182.31;5074987;28;20464;-64
2021/10/27 01:11:45;;;;;;;24.13;8.88;;;;;;;13.48;97.49;102176.16;5075024;28;20107;-61
2021/10/27 01:14:10;;;;;;;25.75;8.77;;;;;;;13.48;97.73;102176.16;5072736;28;20764;-61
2021/10/27 01:16:36;;;;;;;16.90;8.32;;;;;;;13.46;97.71;102180.69;5072914;28;20115;-62
2021/10/27 01:19:02;;;;;;;20.15;8.95;;;;;;;13.44;97.54;102178.94;5074666;28;20491;-63
2021/10/27 01:21:31;;;;;;;20.15;8.35;;;;;;;13.49;97.65;102188.53;5075045;28;20024;-63
2021/10/27 01:23:58;;;;;;;21.58;8.68;;;;;;;13.52;97.24;102183.97;5074985;28;20020;-60
2021/10/27 01:26:24;;;;;;;18.00;7.63;;;;;;;13.54;97.14;102178.59;5070989;28;20081;-63
2021/10/27 01:28:49;;;;;;;19.58;7.60;;;;;;;13.56;97.19;102192.72;5074980;28;20029;-60
2021/10/27 01:31:15;;;;;;;18.27;7.63;;;;;;;13.61;96.88;102182.78;5074194;28;20460;-60
2021/10/27 01:33:42;;;;;;;18.20;7.15;;;;;;;13.60;96.89;102173.06;5074369;28;20404;-62
2021/10/27 01:36:10;;;;;;;18.45;7.38;;;;;;;13.62;96.80;102175.66;5070424;28;20131;-61
2021/10/27 01:38:36;;;;;;;16.50;7.22;;;;;;;13.54;97.28;102176.81;5074674;28;20036;-63
2021/10/27 01:41:02;;;;;;;17.85;7.72;;;;;;;13.54;97.32;102192.78;5074493;28;20448;-61
2021/10/27 01:43:27;;;;;;;19.33;7.78;;;;;;;13.55;97.19;102186.53;5069009;28;20088;-60
2021/10/27 01:45:53;;;;;;;20.45;7.93;;;;;;;13.50;97.36;102177.84;5054886;28;20032;-61
2021/10/27 01:48:19;;;;;;;15.50;7.90;;;;;;;13.47;97.13;102169.97;5054225;28;20025;-62
2021/10/27 01:50:45;;;;;;;17.52;7.80;;;;;;;13.42;97.01;102169.28;5054169;28;20384;-61
2021/10/27 01:53:11;;;;;;;18.38;7.35;;;;;;;13.42;97.11;102175.44;5054138;28;20380;-64
2021/10/27 01:55:37;;;;;;;18.88;7.82;;;;;;;13.41;96.89;102179.06;5055499;28;20020;-63
2021/10/27 01:58:03;;;;;;;17.08;6.90;;;;;;;13.41;96.79;102170.19;5054482;28;20032;-60
2021/10/27 02:00:28;;;;;;;18.13;7.10;;;;;;;13.43;96.56;102163.88;5053739;28;20025;-63
2021/10/27 02:02:53;;;;;;;15.77;6.10;;;;;;;13.44;96.56;102160.31;5054060;28;20088;-63
2021/10/27 02:05:19;;;;;;;16.33;6.50;;;;;;;13.46;96.32;102170.88;5054702;28;20032;-62
2021/10/27 02:07:44;;;;;;;16.88;6.03;;;;;;;13.46;96.08;102164.72;5054751;28;20036;-61
2021/10/27 02:10:12;;;;;;;16.00;5.47;;;;;;;13.46;96.00;102162.06;5053865;28;20029;-62
2021/10/27 02:12:39;;;;;;;17.65;5.50;;;;;;;13.47;95.89;102155.81;5053565;28;20480;-63
2021/10/27 02:15:06;;;;;;;13.48;5.20;;;;;;;13.48;95.77;102155.75;5054409;28;20464;-62
2021/10/27 02:17:31;;;;;;;18.38;5.40;;;;;;;13.46;95.67;102146.94;5054199;28;20029;-62
2021/10/27 02:19:57;;;;;;;16.80;5.28;;;;;;;13.50;95.66;102150.38;5053429;28;20020;-61
2021/10/27 02:22:22;;;;;;;14.40;4.90;;;;;;;13.50;95.50;102142.38;5053633;28;20100;-60
2021/10/27 02:24:47;;;;;;;16.92;4.82;;;;;;;13.51;95.09;102142.31;5053516;28;20103;-61
2021/10/27 02:27:13;;;;;;;12.60;4.78;;;;;;;13.50;95.16;102150.38;5054197;28;20170;-60
2021/10/27 02:29:38;;;;;;;15.98;4.65;;;;;;;13.47;95.31;102143.38;5053058;28;20021;-62
2021/10/27 02:32:04;;;;;;;11.95;4.68;;;;;;;13.47;95.33;102148.69;5053092;28;20021;-61
2021/10/27 02:34:30;;;;;;;14.85;4.45;;;;;;;13.47;95.28;102140.69;5052951;28;20059;-60
2021/10/27 02:36:55;;;;;;;11.50;4.18;;;;;;;13.51;94.82;102139.66;5053990;28;20040;-62
2021/10/27 02:39:21;;;;;;;14.32;4.32;;;;;;;13.53;94.68;102142.25;5053031;28;20029;-62
2021/10/27 02:41:46;;;;;;;17.90;4.20;;;;;;;13.52;94.44;102132.56;5053172;28;20048;-59
2021/10/27 02:44:11;;;;;;;16.48;4.28;;;;;;;13.56;94.44;102151.00;5053139;28;20025;-59
2021/10/27 02:46:37;;;;;;;12.10;4.47;;;;;;;13.56;94.05;102163.47;5053078;28;20033;-60
2021/10/27 02:49:02;;;;;;;15.40;4.05;;;;;;;13.64;93.60;102147.22;5053744;28;20067;-61
2021/10/27 02:51:28;;;;;;;15.45;4.07;;;;;;;13.63;93.45;102148.13;5053119;28;20473;-65
2021/10/27 02:53:53;;;;;;;11.60;4.13;;;;;;;13.57;93.80;102149.22;5053055;28;20385;-64
2021/10/27 02:56:19;;;;;;;15.70;4.05;;;;;;;13.60;93.82;102154.44;5052712;28;20102;-63
2021/10/27 02:58:44;;;;;;;14.25;4.47;;;;;;;13.55;94.07;102148.41;5054239;28;20033;-63
2021/10/27 03:01:09;;;;;;;25.95;5.47;;;;;;;13.55;94.16;102153.72;5070585;28;20499;-59
2021/10/27 03:03:35;;;;;;;13.15;4.45;;;;;;;13.54;94.18;102158.19;5054022;28;20036;-62
2021/10/27 03:06:01;;;;;;;13.35;5.00;;;;;;;13.53;94.32;102168.88;5072629;28;20020;-64
2021/10/27 03:08:27;;;;;;;14.80;4.32;;;;;;;13.52;94.51;102168.00;5071002;28;20044;-59
2021/10/27 03:10:52;;;;;;;15.15;4.50;;;;;;;13.47;94.93;102151.34;5049080;28;20037;-62
2021/10/27 03:13:17;;;;;;;16.02;4.47;;;;;;;13.48;94.96;102146.88;5072950;28;20025;-64
2021/10/27 03:15:43;;;;;;;15.07;5.10;;;;;;;13.45;94.82;102158.50;5072561;28;20476;-64
2021/10/27 03:18:08;;;;;;;16.48;4.82;;;;;;;13.45;94.78;102158.50;5072458;28;20110;-60
2021/10/27 03:20:34;;;;;;;11.90;4.50;;;;;;;13.44;94.91;102152.31;5071005;28;20061;-64
2021/10/27 03:23:00;;;;;;;15.70;4.78;;;;;;;13.44;94.98;102162.13;5070743;28;20084;-64
2021/10/27 03:25:25;;;;;;;9.50;4.15;;;;;;;13.48;94.95;102165.50;5072854;28;20491;-62
2021/10/27 03:27:51;;;;;;;13.80;4.50;;;;;;;13.44;94.76;102175.41;5072698;28;20024;-62
2021/10/27 03:30:16;;;;;;;11.20;4.43;;;;;;;13.42;94.98;102158.63;5070719;28;20036;-63
2021/10/27 03:32:42;;;;;;;14.65;4.82;;;;;;;13.42;95.20;102163.94;5068216;28;20103;-61
2021/10/27 03:35:07;;;;;;;14.80;5.00;;;;;;;13.39;95.34;102161.41;5052283;28;20082;-62
2021/10/27 03:37:33;;;;;;;15.63;5.05;;;;;;;13.38;95.58;102167.66;5052335;28;20102;-62
2021/10/27 03:39:59;;;;;;;14.80;4.88;;;;;;;13.36;95.66;102161.47;5050323;28;20025;-64
2021/10/27 03:42:24;;;;;;;15.18;4.20;;;;;;;13.35;95.81;102165.94;5051389;28;20032;-61
2021/10/27 03:44:49;;;;;;;14.48;4.40;;;;;;;13.31;95.89;102160.75;5051937;28;20485;-62
2021/10/27 03:47:15;;;;;;;15.80;4.80;;;;;;;13.32;95.94;102163.38;5052545;28;20032;-62
2021/10/27 03:49:40;;;;;;;14.75;5.03;;;;;;;13.31;95.89;102158.09;5051896;28;20028;-62
2021/10/27 03:52:06;;;;;;;14.07;4.95;;;;;;;13.34;95.69;102163.31;5050343;28;20059;-64
2021/10/27 03:54:31;;;;;;;13.88;5.20;;;;;;;13.35;95.67;102168.59;5050367;28;20033;-64
2021/10/27 03:56:57;;;;;;;15.73;5.60;;;;;;;13.31;95.89;102158.97;5052528;28;20075;-62
2021/10/27 03:59:22;;;;;;;12.38;4.95;;;;;;;13.29;95.91;102163.47;5053196;28;20021;-64
2021/10/27 04:01:48;;;;;;;18.80;5.50;;;;;;;13.28;96.04;102167.91;5051417;28;20025;-62
2021/10/27 04:04:13;;;;;;;9.70;4.43;;;;;;;13.30;95.73;102167.00;5036906;28;20029;-60
2021/10/27 04:06:38;;;;;;;12.88;4.72;;;;;;;13.30;95.77;102170.56;5035686;28;20041;-62
2021/10/27 04:09:04;;;;;;;13.45;5.15;;;;;;;13.24;95.87;102160.13;5035852;28;20072;-62
2021/10/27 04:11:29;;;;;;;10.77;4.50;;;;;;;13.24;95.39;102163.63;5036324;28;20037;-61
2021/10/27 04:13:55;;;;;;;13.10;4.45;;;;;;;13.26;95.29;102160.91;5051175;28;20464;-63
2021/10/27 04:16:20;;;;;;;15.25;4.40;;;;;;;13.27;95.21;102173.28;5038553;28;20396;-63
2021/10/27 04:18:45;;;;;;;16.73;4.60;;;;;;;13.24;95.08;102160.97;5036172;28;20029;-61
2021/10/27 04:21:11;;;;;;;8.25;3.97;;;;;;;13.22;95.01;102165.50;5035592;28;20107;-64
2021/10/27 04:23:36;;;;;;;11.68;4.25;;;;;;;13.25;94.79;102172.50;5042992;28;20025;-59
2021/10/27 04:26:01;;;;;;;10.93;4.32;;;;;;;13.26;94.44;102164.47;5053968;28;20468;-63
2021/10/27 04:28:27;;;;;;;14.68;4.47;;;;;;;13.28;93.99;102169.72;5055736;28;20033;-64
2021/10/27 04:30:52;;;;;;;13.38;4.35;;;;;;;13.34;93.27;102165.97;5055795;28;20025;-65
2021/10/27 04:33:21;;;;;;;11.80;4.20;;;;;;;13.33;93.39;102165.09;5061478;28;20067;-62
2021/10/27 04:35:48;;;;;;;11.05;4.20;;;;;;;13.34;92.95;102157.97;5036823;28;20044;-62
2021/10/27 04:38:14;;;;;;;13.65;4.50;;;;;;;13.36;92.74;102161.47;5035447;28;20033;-61
2021/10/27 04:40:42;;;;;;;9.70;4.07;;;;;;;13.30;92.94;102165.22;5035372;28;20029;-62
2021/10/27 04:43:08;;;;;;;12.45;4.22;;;;;;;13.29;92.90;102166.16;5035711;28;20018;-64
2021/10/27 04:45:34;;;;;;;12.30;4.25;;;;;;;13.31;92.89;102158.97;5034889;28;20389;-65
2021/10/27 04:47:59;;;;;;;11.27;4.30;;;;;;;13.33;92.55;102164.25;5073050;28;20024;-64
2021/10/27 04:50:25;;;;;;;10.80;4.28;;;;;;;13.33;92.64;102177.56;5075455;28;20036;-64
2021/10/27 04:52:50;;;;;;;12.93;4.50;;;;;;;13.27;92.65;102166.19;5074860;28;20070;-65
2021/10/27 04:55:16;;;;;;;13.63;4.43;;;;;;;13.29;92.78;102163.47;5069337;28;20029;-63
2021/10/27 04:57:41;;;;;;;12.25;4.72;;;;;;;13.27;92.82;102162.66;5055919;28;20025;-64
2021/10/27 05:00:07;;;;;;;14.50;4.55;;;;;;;13.30;92.61;102162.56;5055085;28;20025;-64
2021/10/27 05:02:32;;;;;;;10.70;4.50;;;;;;;13.30;92.56;102165.22;5054798;28;20028;-60
2021/10/27 05:04:57;;;;;;;9.65;4.70;;;;;;;13.31;92.32;102166.94;5055313;28;20435;-63
2021/10/27 05:07:24;;;;;;;10.60;4.80;;;;;;;13.31;92.51;102163.44;5054332;28;20040;-56
2021/10/27 05:09:50;;;;;;;15.13;4.80;;;;;;;13.30;92.54;102173.22;5036751;28;20036;-62
2021/10/27 05:12:15;;;;;;;11.32;4.65;;;;;;;13.27;92.71;102182.16;5053780;28;20025;-61
2021/10/27 05:14:41;;;;;;;10.30;4.40;;;;;;;13.22;92.44;102176.13;5054479;28;20028;-63
2021/10/27 05:17:13;;;;;;;11.45;4.80;;;;;;;13.25;92.80;102175.16;5064044;28;20029;-62
2021/10/27 05:19:44;;;;;;;11.85;5.10;;;;;;;13.31;92.35;102171.41;5073185;28;20048;-63
2021/10/27 05:22:11;;;;;;;13.88;4.60;;;;;;;13.33;92.20;102172.22;5074899;28;20017;-63
2021/10/27 05:24:38;;;;;;;12.88;4.57;;;;;;;13.31;92.02;102160.75;5074565;28;20017;-61
2021/10/27 05:27:04;;;;;;;12.98;4.70;;;;;;;13.30;92.02;102167.88;5057043;28;20481;-63
2021/10/27 05:29:30;;;;;;;11.45;4.55;;;;;;;13.30;92.40;102162.56;5053767;28;20025;-61
2021/10/27 05:31:55;;;;;;;11.73;4.90;;;;;;;13.30;92.09;102167.88;5054509;28;20491;-61
2021/10/27 05:34:21;;;;;;;11.93;5.40;;;;;;;13.28;91.95;102162.59;5052440;28;20045;-60
2021/10/27 05:36:46;;;;;;;12.98;4.40;;;;;;;13.31;91.92;102171.41;5036237;28;20499;-60
2021/10/27 05:39:13;;;;;;;8.95;4.20;;;;;;;13.27;92.02;102174.19;5070375;28;20108;-60
2021/10/27 05:41:42;;;;;;;12.68;4.70;;;;;;;13.28;92.12;102167.06;5072474;28;20032;-61
2021/10/27 05:44:07;;;;;;;10.88;4.57;;;;;;;13.28;91.79;102167.06;5074111;28;20423;-61
2021/10/27 05:46:32;;;;;;;9.88;4.50;;;;;;;13.27;92.11;102160.88;5074087;28;20021;-61
2021/10/27 05:49:07;;;;;;;10.70;4.85;;;;;;;13.30;91.62;102162.56;5072368;28;20488;-63
2021/10/27 05:51:42;;;;;;;14.20;5.15;;;;;;;13.31;91.67;102160.75;5065213;28;20029;-61
2021/10/27 05:56:52;;;;;;;11.88;5.18;;;;;;;13.33;91.37;102165.09;5053477;28;20555;-60
2021/10/27 05:59:17;;;;;;;16.30;5.85;;;;;;;13.35;91.31;102168.59;5054988;28;20025;-61
2021/10/27 06:01:43;;;;;;;11.82;4.53;;;;;;;13.38;91.35;102176.50;5053580;28;20384;-61
2021/10/27 06:04:08;;;;;;;11.48;4.30;;;;;;;13.38;91.13;102175.63;5053829;28;20029;-64
2021/10/27 06:06:33;;;;;;;12.98;4.30;;;;;;;13.39;91.13;102180.91;5053810;28;20468;-62
2021/10/27 06:09:00;;;;;;;10.18;4.68;;;;;;;13.39;91.16;102186.22;5053509;28;20028;-62
2021/10/27 06:11:25;;;;;;;13.85;4.63;;;;;;;13.39;91.44;102174.72;5052778;28;20504;-61
2021/10/27 06:13:51;;;;;;;15.60;5.10;;;;;;;13.38;91.35;102178.28;5053645;28;20033;-61
2021/10/27 06:16:16;;;;;;;13.20;4.28;;;;;;;13.38;91.09;102175.63;5053352;28;20112;-64
2021/10/27 06:18:42;;;;;;;22.95;6.65;;;;;;;13.40;91.15;102179.97;5049882;28;20025;-56
2021/10/27 06:21:08;;;;;;;13.73;4.32;;;;;;;13.38;91.25;102180.94;5058936;28;20079;-60
2021/10/27 06:23:35;;;;;;;12.73;4.45;;;;;;;13.40;91.05;102184.41;5066365;28;20029;-60
2021/10/27 06:26:00;;;;;;;12.00;4.65;;;;;;;13.36;91.13;102193.41;5072805;28;20128;-60
2021/10/27 06:28:29;;;;;;;9.43;5.00;;;;;;;13.36;91.26;102196.94;5073287;28;20158;-61
2021/10/27 06:31:05;;;;;;;10.95;4.30;;;;;;;13.37;91.20;102196.03;5063596;28;20024;-60
2021/10/27 06:38:51;;;;;;;12.75;4.75;;;;;;;13.27;92.04;102207.88;5053615;28;20044;-64
2021/10/27 06:46:45;;;;;;;12.52;5.00;;;;;;;13.30;92.26;102222.88;5053188;28;20456;-60
2021/10/27 06:49:10;;;;;;;11.82;4.95;;;;;;;13.32;92.01;102234.34;5052520;28;20025;-63
2021/10/27 06:51:36;;;;;;;13.30;4.95;;;;;;;13.32;92.10;102235.19;5067921;28;20107;-63
2021/10/27 06:54:02;;;;;;;11.90;5.30;;;;;;;13.31;91.90;102236.09;5063779;28;20166;-65
2021/10/27 06:56:28;;;;;;;14.27;5.40;;;;;;;13.33;92.01;102225.44;5072101;28;20162;-64
2021/10/27 06:59:01;;;;;;;13.82;5.32;;;;;;;13.29;91.93;102240.63;5073001;28;20107;-63
2021/10/27 07:17:14;;;;;;;12.30;4.60;;;;;;;13.50;90.59;102227.53;5049614;28;20044;-65
2021/10/27 07:19:40;;;;;;;11.15;4.00;;;;;;;13.55;90.50;102239.75;5049297;28;20108;-64
2021/10/27 07:22:06;;;;;;;10.18;3.92;;;;;;;13.57;90.00;102234.41;5053997;28;20112;-64
2021/10/27 07:24:31;;;;;;;12.25;4.80;;;;;;;13.59;90.04;102235.19;5066127;28;20025;-63
2021/10/27 07:27:01;;;;;;;15.50;5.40;;;;;;;13.58;90.04;102246.75;5055568;28;20094;-64
2021/10/27 07:29:27;;;;;;;8.65;4.82;;;;;;;13.56;90.37;102245.97;5052094;28;20033;-60
2021/10/27 07:31:52;;;;;;;15.20;5.60;;;;;;;13.57;90.01;102243.25;5058958;28;20107;-60
2021/10/27 07:34:18;;;;;;;14.57;5.18;;;;;;;13.56;89.88;102246.81;5054220;28;20480;-60
2021/10/27 07:41:53;;;;;;;12.32;5.07;;;;;;;13.60;89.61;102247.59;5053951;28;20384;-60
2021/10/27 07:44:20;;;;;;;12.98;4.68;;;;;;;13.62;89.72;102255.50;5059945;28;20029;-61
2021/10/27 07:46:46;;;;;;;15.27;5.47;;;;;;;13.63;89.77;102258.13;5052630;28;20036;-61
2021/10/27 07:49:13;;;;;;;13.20;5.03;;;;;;;13.67;89.61;102253.56;5055537;28;20024;-60
2021/10/27 07:51:38;;;;;;;12.65;5.43;;;;;;;13.70;89.28;102256.13;5052601;28;20025;-63
2021/10/27 07:54:06;;;;;;;13.65;4.63;;;;;;;13.74;89.04;102255.94;5053162;28;20362;-59
2021/10/27 07:56:32;;;;;;;17.60;5.68;;;;;;;13.81;88.63;102251.28;5059253;28;20044;-60
2021/10/27 07:59:00;;;;;;;11.00;4.10;;;;;;;13.88;87.56;102243.94;5067257;28;20025;-60
2021/10/27 08:01:25;;;;;;;11.88;4.10;;;;;;;13.92;87.80;102256.22;5060251;28;20030;-60
2021/10/27 08:03:51;;;;;;;8.98;4.10;;;;;;;13.96;87.68;102254.31;5057675;28;20025;-54
2021/10/27 08:06:16;;;;;;;6.53;3.33;;;;;;;13.99;87.10;102254.19;5058634;28;20389;-60
2021/10/27 08:08:41;;;;;;;11.23;4.30;;;;;;;14.01;87.02;102252.34;5056077;28;20021;-60
2021/10/27 08:11:08;;;;;;;10.55;4.00;;;;;;;14.01;86.08;102265.66;5053331;28;20100;-59
2021/10/27 08:13:34;;;;;;;9.68;3.45;;;;;;;14.03;86.28;102259.38;5054840;28;20036;-61
2021/10/27 08:15:59;;;;;;;12.88;5.20;;;;;;;14.06;85.80;102264.56;5059324;28;20033;-61
2021/10/27 08:18:24;;;;;;;14.02;5.13;;;;;;;14.09;85.61;102267.13;5070353;28;20021;-61
2021/10/27 08:20:50;;;;;;;30.10;8.60;;;;;;;14.16;85.24;102264.25;5052743;28;20104;-62
2021/10/27 08:23:19;;;;;;;11.95;4.60;;;;;;;14.14;85.37;102266.09;5054199;28;20484;-62
2021/10/27 08:25:47;;;;;;;9.48;3.65;;;;;;;14.19;85.12;102266.78;5043863;28;20029;-61
2021/10/27 08:28:16;;;;;;;9.30;3.83;;;;;;;14.22;84.41;102259.56;5065191;28;20025;-62
2021/10/27 08:33:20;;;;;;;9.02;3.90;;;;;;;14.35;83.76;102275.09;5067870;28;20028;-61
2021/10/27 08:35:47;;;;;;;9.52;3.78;;;;;;;14.40;83.65;102273.13;5012643;28;20139;-61
2021/10/27 08:38:13;;;;;;;9.43;4.03;;;;;;;14.42;83.10;102280.13;5037050;28;20475;-63
2021/10/27 08:40:41;;;;;;;10.25;3.45;;;;;;;14.44;83.12;102274.72;5032158;28;20068;-62
2021/10/27 08:43:09;;;;;;;20.50;4.88;;;;;;;14.40;83.72;102275.78;5033355;28;20033;-61
2021/10/27 08:45:35;;;;;;;11.20;3.38;;;;;;;14.41;83.43;102273.06;5037328;28;20017;-63
2021/10/27 08:48:04;;;;;;;10.25;3.58;;;;;;;14.45;83.13;102272.91;5053981;28;20494;-64
2021/10/27 08:50:29;;;;;;;13.65;4.63;;;;;;;14.47;83.39;102266.59;5054138;28;20477;-62
2021/10/27 08:52:55;;;;;;;14.50;4.30;;;;;;;14.48;83.01;102279.00;5054901;28;20025;-63
2021/10/27 08:55:20;;;;;;;13.48;3.70;;;;;;;14.51;82.89;102270.03;5053496;28;20041;-59
2021/10/27 08:57:49;;;;;;;12.55;4.13;;;;;;;14.59;83.10;102281.25;5053103;28;20075;-63
2021/10/27 09:39:32;;;;;;;6.80;2.88;;;;;;;14.82;79.91;102283.06;4953725;29;20067;-61
2021/10/27 09:47:32;;;;;;;7.78;2.88;;;;;;;14.91;79.08;102295.13;4953964;28;20122;-62
2021/10/27 10:06:27;;;;;;;8.43;3.40;;;;;;;14.96;78.10;102317.19;5035447;28;20754;-64
2021/10/27 10:08:53;;;;;;;9.50;3.25;;;;;;;14.92;78.62;102302.22;5047477;28;20036;-64
2021/10/27 10:11:26;;;;;;;9.85;3.40;;;;;;;14.98;77.98;102299.31;5040393;28;20402;-62
2021/10/27 10:13:54;;;;;;;9.70;3.60;;;;;;;15.00;78.24;102308.13;5038298;28;20488;-62
2021/10/27 10:16:20;;;;;;;9.05;3.60;;;;;;;15.01;77.80;102299.22;5032951;28;20025;-62
2021/10/27 10:18:46;;;;;;;11.10;4.25;;;;;;;15.05;77.88;102307.94;5038301;28;20029;-62
2021/10/27 10:21:26;;;;;;;10.20;3.95;;;;;;;15.05;77.82;102310.59;5033739;28;20029;-65
2021/10/27 10:24:13;;;;;;;10.60;3.60;;;;;;;15.10;77.30;102303.28;5052215;28;20025;-63
2021/10/27 10:26:41;;;;;;;10.95;3.63;;;;;;;15.15;76.94;102313.78;5052582;28;20104;-63
2021/10/27 10:29:06;;;;;;;6.60;3.50;;;;;;;15.16;77.40;102313.69;5018417;28;20021;-61
2021/10/27 10:31:35;;;;;;;10.20;4.10;;;;;;;15.17;76.77;102322.59;5044662;28;20116;-63
2021/10/27 10:34:05;;;;;;;14.10;4.00;;;;;;;15.14;76.61;102315.59;5042382;28;20062;-64
2021/10/27 10:36:34;;;;;;;10.65;3.50;;;;;;;15.07;77.19;102322.94;5071009;28;20119;-64
2021/10/27 10:39:14;;;;;;;13.80;4.22;;;;;;;15.03;77.68;102325.81;5071328;28;20082;-62
2021/10/27 10:58:26;;;;;;;10.75;4.00;;;;;;;14.93;78.45;102327.13;5053126;28;20048;-63
2021/10/27 11:40:38;;;;;;;9.95;5.38;;;;;;;14.85;79.51;102298.94;5064253;28;20171;-62
2021/10/27 11:45:42;;;;;;;12.50;6.38;;;;;;;14.87;79.32;102288.19;5062122;28;20611;-60
2021/10/27 11:48:27;;;;;;;9.95;5.55;;;;;;;14.95;78.96;102290.56;5052974;28;20033;-62
2021/10/27 11:50:52;;;;;;;10.63;6.00;;;;;;;14.86;79.02;102283.78;5054763;28;20507;-59
2021/10/27 11:53:29;;;;;;;10.25;6.10;;;;;;;14.82;79.45;102288.41;5067593;28;20020;-62
2021/10/27 11:55:56;;;;;;;14.27;7.00;;;;;;;14.78;79.97;102277.91;5069644;28;20035;-63
2021/10/27 11:58:35;;;;;;;12.20;6.70;;;;;;;14.86;79.57;102279.34;5063138;28;20033;-61
2021/10/27 12:01:02;;;;;;;19.00;7.68;;;;;;;14.96;79.47;102278.97;5067474;28;20033;-56
2021/10/27 12:03:38;;;;;;;10.73;6.45;;;;;;;15.00;79.49;102275.22;5057860;28;20051;-58
2021/10/27 12:06:13;;;;;;;11.52;6.22;;;;;;;15.13;79.02;102284.50;5052804;28;20021;-62
2021/10/27 12:11:49;;;;;;;12.80;6.57;;;;;;;15.14;78.49;102266.66;5057585;28;20496;-60
2021/10/27 12:17:35;;;;;;;16.45;6.90;;;;;;;15.26;78.29;102265.31;4970924;28;20035;-60
2021/10/27 12:20:01;;;;;;;;;;;;;;;15.39;76.52;102266.53;4970698;28;20042;-59
2021/10/27 12:22:27;;;;;;;11.65;7.88;;;;;;;15.28;76.67;102258.09;4974748;28;19914;-62
2021/10/27 12:25:05;;;;;;;10.43;7.43;;;;;;;15.21;77.14;102266.34;4975052;28;20022;-58
2021/10/27 12:27:35;;;;;;;11.73;7.50;;;;;;;15.04;77.92;102251.06;4992589;28;20043;-60
2021/10/27 12:30:07;;;;;;;14.75;8.68;;;;;;;14.89;78.15;102249.88;4955614;29;20139;-61
2021/10/27 12:32:34;;;;;;;12.90;9.00;;;;;;;14.95;78.53;102237.22;4970075;28;20491;-61
2021/10/27 12:35:00;;;;;;;17.10;9.02;;;;;;;15.07;77.97;102247.38;4974011;28;20043;-59
2021/10/27 12:37:59;;;;;;;18.50;9.27;;;;;;;15.15;77.95;102239.06;4974316;28;20066;-60
2021/10/27 12:40:27;;;;;;;16.50;8.68;;;;;;;15.12;77.48;102247.22;4972681;28;20117;-61
2021/10/27 12:42:58;;;;;;;15.50;8.30;;;;;;;15.16;77.47;102232.81;4981001;28;20031;-58
2021/10/27 12:45:32;;;;;;;19.13;9.53;;;;;;;15.31;77.14;102236.63;4994108;28;20088;-61
2021/10/27 12:48:36;;;;;;;12.60;7.72;;;;;;;15.54;76.10;102233.81;4994286;28;20284;-62
2021/10/27 12:51:10;;;;;;;12.32;7.53;;;;;;;15.60;75.13;102226.47;4974744;28;20086;-62
2021/10/27 12:53:50;;;;;;;15.20;8.13;;;;;;;15.72;74.33;102234.81;5044518;28;20041;-62
2021/10/27 12:56:25;;;;;;;15.90;7.22;;;;;;;15.87;74.44;102227.97;5055004;28;20025;-62
2021/10/27 12:59:12;;;;;;;12.70;6.90;;;;;;;16.21;72.57;102230.88;5055510;28;20078;-60
2021/10/27 13:02:04;;;;;;;14.10;7.28;;;;;;;16.30;71.85;102235.78;5056744;28;20036;-61
2021/10/27 13:05:12;;;;;;;12.00;6.53;;;;;;;16.28;71.54;102226.13;5054339;28;20048;-62
2021/10/27 13:07:26;;;;;;;12.35;5.97;;;;;;;16.28;72.08;102221.66;5057370;28;20035;-60
2021/10/27 13:21:26;;;;;;;14.05;6.70;;;;;;;16.80;69.51;102226.31;4841211;29;20571;-60
2021/10/27 13:29:24;;;;;;;11.93;5.70;;;;;;;17.00;68.92;102224.47;4841558;29;20050;-58
2021/10/27 13:32:16;;;;;;;12.68;6.53;;;;;;;16.45;70.34;102226.19;4859836;29;20117;-58
2021/10/27 13:34:42;;;;;;;15.30;6.53;;;;;;;16.36;71.43;102215.94;4858268;29;20082;-60
2021/10/27 13:37:08;;;;;;;12.75;7.30;;;;;;;16.18;72.35;102220.34;4859155;29;20049;-62
2021/10/27 13:39:35;;;;;;;19.27;7.45;;;;;;;16.14;73.14;102222.28;4858276;29;20041;-59
2021/10/27 13:42:06;;;;;;;11.93;7.13;;;;;;;16.02;72.81;102209.50;4859524;29;20053;-58
2021/10/27 13:44:37;;;;;;;13.95;7.50;;;;;;;15.94;73.86;102217.84;4859927;29;20094;-59
2021/10/27 13:58:31;;;;;;;16.40;7.70;;;;;;;15.62;74.37;102229.97;4930478;29;20095;-58
2021/10/27 14:07:03;;;;;;;12.38;6.47;;;;;;;15.31;74.36;102224.16;4915650;29;20091;-58
2021/10/27 14:22:37;;;;;;;11.30;6.50;;;;;;;15.02;74.82;102204.03;4932335;29;20551;-59
2021/10/27 15:35:56;;;;;;;12.43;7.10;;;;;;;14.08;75.25;102173.97;5051984;28;20133;-60
2021/10/27 15:51:55;;;;;;;13.27;7.35;;;;;;;13.53;78.33;102183.06;4991381;28;20085;-58
2021/10/27 15:54:21;;;;;;;13.98;7.68;;;;;;;13.44;79.22;102184.25;4998128;28;20033;-61
2021/10/27 15:56:47;;;;;;;12.20;7.75;;;;;;;13.38;79.21;102191.59;5013256;28;20045;-61
2021/10/27 15:59:13;;;;;;;12.32;8.10;;;;;;;13.31;79.62;102192.69;5011884;28;20060;-63
2021/10/27 16:01:38;;;;;;;12.15;8.10;;;;;;;13.24;80.04;102194.69;5014570;28;20466;-59
2021/10/27 16:04:05;;;;;;;12.38;7.85;;;;;;;13.20;80.36;102204.56;4996227;28;21490;-58
2021/10/27 16:06:36;;;;;;;13.55;8.35;;;;;;;13.18;80.78;102198.41;4994050;28;20030;-60
2021/10/27 16:09:05;;;;;;;17.13;9.10;;;;;;;13.18;80.88;102194.91;4994223;28;20113;-63
2021/10/27 16:11:31;;;;;;;13.57;8.77;;;;;;;13.13;80.75;102188.88;4995635;28;20128;-57
2021/10/27 16:13:56;;;;;;;14.48;9.52;;;;;;;13.07;81.28;102192.63;5013951;28;20030;-62
2021/10/27 16:16:22;;;;;;;20.17;10.10;;;;;;;13.00;81.71;102186.63;5000021;28;20045;-62